createdAt,value
2018-01-05T00:00:35.272Z,83.50
2018-01-05T00:03:03.065Z,83.60
2018-01-05T00:05:30.820Z,83.60
2018-01-05T00:07:58.561Z,83.60
2018-01-05T00:10:26.300Z,83.50
2018-01-05T00:12:54.062Z,83.40
2018-01-05T00:15:21.744Z,83.90
2018-01-05T00:17:49.440Z,84.60
2018-01-05T00:20:17.135Z,85.00
2018-01-05T00:22:44.882Z,84.90
2018-01-05T00:25:12.582Z,84.80
2018-01-05T00:27:40.309Z,84.50
2018-01-05T00:30:08.104Z,84.60
2018-01-05T00:32:35.821Z,84.30
2018-01-05T00:35:03.486Z,84.00
2018-01-05T00:37:31.186Z,83.60
2018-01-05T00:40:00.537Z,83.90
2018-01-05T00:42:28.360Z,83.90
2018-01-05T00:44:56.088Z,83.50
2018-01-05T00:47:23.776Z,83.40
2018-01-05T00:49:51.478Z,83.00
2018-01-05T00:52:19.266Z,82.70
2018-01-05T00:54:47.081Z,82.40
2018-01-05T00:57:14.782Z,82.10
2018-01-05T00:59:42.545Z,81.50
2018-01-05T01:02:11.026Z,82.80
2018-01-05T01:04:38.840Z,82.80
2018-01-05T01:07:06.539Z,83.20
2018-01-05T01:09:34.244Z,83.40
2018-01-05T01:12:01.944Z,83.30
2018-01-05T01:14:29.624Z,83.20
2018-01-05T01:16:57.322Z,82.70
2018-01-05T01:21:56.887Z,82.30
2018-01-05T01:24:24.601Z,82.10
2018-01-05T01:26:52.379Z,82.20
2018-01-05T01:29:20.080Z,82.50
2018-01-05T01:31:48.571Z,83.20
2018-01-05T01:34:16.279Z,83.20
2018-01-05T01:36:43.966Z,84.10
2018-01-05T01:39:11.651Z,84.00
2018-01-05T01:41:39.325Z,83.80
2018-01-05T01:44:07.082Z,83.80
2018-01-05T01:46:34.759Z,83.60
2018-01-05T01:49:02.480Z,83.40
2018-01-05T01:51:30.941Z,84.00
2018-01-05T01:53:58.642Z,84.00
2018-01-05T01:56:26.321Z,84.70
2018-01-05T01:58:54.045Z,84.80
2018-01-05T02:01:21.715Z,84.80
2018-01-05T02:03:49.423Z,85.30
2018-01-05T02:06:17.120Z,84.90
2018-01-05T02:08:44.869Z,85.10
2018-01-05T02:11:12.541Z,85.50
2018-01-05T02:13:40.327Z,85.80
2018-01-05T02:16:08.847Z,85.70
2018-01-05T02:18:36.523Z,85.70
2018-01-05T02:21:04.283Z,85.70
2018-01-05T02:23:32.013Z,85.50
2018-01-05T02:25:59.763Z,85.20
2018-01-05T02:28:27.462Z,85.00
2018-01-05T02:30:55.163Z,84.50
2018-01-05T02:33:22.822Z,84.80
2018-01-05T02:35:50.549Z,85.70
2018-01-05T02:38:18.243Z,85.80
2018-01-05T02:40:45.924Z,85.70
2018-01-05T02:43:13.623Z,86.00
2018-01-05T02:45:41.326Z,86.10
2018-01-05T02:48:09.032Z,85.70
2018-01-05T02:50:36.762Z,85.90
2018-01-05T02:53:04.423Z,86.20
2018-01-05T02:55:32.123Z,86.10
2018-01-05T02:57:59.884Z,86.10
2018-01-05T03:00:27.578Z,86.00
2018-01-05T03:05:27.103Z,85.90
2018-01-05T03:07:54.840Z,85.40
2018-01-05T03:10:22.623Z,85.30
2018-01-05T03:12:51.103Z,85.10
2018-01-05T03:15:18.869Z,85.10
2018-01-05T03:17:46.642Z,85.40
2018-01-05T03:20:14.309Z,85.30
2018-01-05T03:22:42.063Z,84.90
2018-01-05T03:25:09.803Z,81.90
2018-01-05T03:27:37.543Z,80.90
2018-01-05T03:30:06.171Z,80.80
2018-01-05T03:32:33.902Z,82.00
2018-01-05T03:35:01.570Z,83.50
2018-01-05T03:37:29.270Z,83.50
2018-01-05T03:39:57.083Z,83.50
2018-01-05T03:42:24.790Z,82.20
2018-01-05T03:44:52.499Z,82.20
2018-01-05T03:47:20.223Z,81.90
2018-01-05T03:49:47.966Z,82.60
2018-01-05T03:52:15.677Z,80.50
2018-01-05T03:54:43.400Z,82.20
2018-01-05T03:57:11.062Z,85.00
2018-01-05T03:59:39.509Z,83.80
2018-01-05T04:02:07.185Z,83.80
2018-01-05T04:04:34.864Z,83.10
2018-01-05T04:07:02.614Z,79.50
2018-01-05T04:09:30.316Z,79.90
2018-01-05T04:11:58.027Z,78.70
2018-01-05T04:14:25.706Z,79.90
2018-01-05T04:16:53.387Z,82.20
2018-01-05T04:19:21.068Z,79.90
2018-01-05T04:21:48.787Z,81.50
2018-01-05T04:24:16.526Z,83.40
2018-01-05T04:26:44.204Z,86.90
2018-01-05T04:29:11.906Z,88.50
2018-01-05T04:31:40.445Z,88.10
2018-01-05T04:36:40.771Z,89.30
2018-01-05T04:39:08.485Z,89.60
2018-01-05T04:41:36.264Z,89.50
2018-01-05T04:44:03.960Z,88.90
2018-01-05T04:46:31.699Z,88.70
2018-01-05T04:48:59.363Z,86.50
2018-01-05T04:51:27.099Z,86.10
2018-01-05T04:53:55.581Z,86.70
2018-01-05T04:56:23.323Z,86.10
2018-01-05T04:58:51.061Z,86.20
2018-01-05T05:01:18.820Z,85.90
2018-01-05T05:03:46.530Z,83.40
2018-01-05T05:06:14.269Z,83.00
2018-01-05T05:08:41.985Z,83.20
2018-01-05T05:11:09.645Z,85.40
2018-01-05T05:13:37.365Z,85.60
2018-01-05T05:16:05.064Z,86.20
2018-01-05T05:18:32.827Z,86.40
2018-01-05T05:21:01.327Z,87.20
2018-01-05T05:23:29.044Z,87.20
2018-01-05T05:25:56.724Z,87.60
2018-01-05T05:28:24.412Z,86.70
2018-01-05T05:30:52.064Z,86.40
2018-01-05T05:33:19.850Z,88.40
2018-01-05T05:35:47.576Z,89.20
2018-01-05T05:38:15.300Z,89.90
2018-01-05T05:40:43.042Z,90.20
2018-01-05T05:43:10.747Z,89.20
2018-01-05T05:45:38.523Z,89.60
2018-01-05T05:48:06.264Z,88.50
2018-01-05T05:50:34.042Z,89.10
2018-01-05T05:53:01.745Z,89.70
2018-01-05T05:55:29.422Z,90.20
2018-01-05T05:57:57.121Z,90.30
2018-01-05T06:00:25.629Z,88.00
2018-01-05T06:02:53.343Z,89.30
2018-01-05T06:05:21.087Z,89.50
2018-01-05T06:07:48.840Z,90.10
2018-01-05T06:10:17.325Z,88.50
2018-01-05T06:12:45.005Z,88.50
2018-01-05T06:15:12.706Z,89.70
2018-01-05T06:17:40.484Z,90.60
2018-01-05T06:20:08.217Z,90.80
2018-01-05T06:22:36.027Z,90.70
2018-01-05T06:25:03.887Z,90.70
2018-01-05T06:27:31.847Z,90.70
2018-01-05T06:29:59.562Z,90.90
2018-01-05T06:32:27.319Z,91.30
2018-01-05T06:34:55.086Z,91.50
2018-01-05T06:37:22.865Z,91.30
2018-01-05T06:39:50.661Z,91.00
2018-01-05T06:42:18.404Z,90.70
2018-01-05T06:44:46.144Z,90.50
2018-01-05T06:47:13.964Z,90.30
2018-01-05T06:49:41.702Z,90.20
2018-01-05T06:52:09.442Z,90.20
2018-01-05T06:54:37.183Z,90.20
2018-01-05T06:57:04.980Z,89.70
2018-01-05T06:59:32.703Z,88.10
2018-01-05T07:02:00.494Z,87.80
2018-01-05T07:04:28.205Z,88.10
2018-01-05T07:06:56.003Z,88.90
2018-01-05T07:09:23.681Z,88.00
2018-01-05T07:11:51.401Z,87.80
2018-01-05T07:14:19.180Z,87.70
2018-01-05T07:16:46.980Z,87.30
2018-01-05T07:19:14.744Z,86.30
2018-01-05T07:21:42.505Z,85.90
2018-01-05T07:24:10.341Z,86.00
2018-01-05T07:26:38.062Z,86.70
2018-01-05T07:29:05.827Z,87.30
2018-01-05T07:31:33.605Z,87.30
2018-01-05T07:34:01.584Z,87.40
2018-01-05T07:36:29.384Z,87.60
2018-01-05T07:38:57.122Z,87.60
2018-01-05T07:41:24.903Z,87.60
2018-01-05T07:43:52.668Z,87.40
2018-01-05T07:46:20.468Z,86.60
2018-01-05T07:48:48.181Z,86.00
2018-01-05T07:51:15.891Z,84.20
2018-01-05T07:53:43.665Z,84.70
2018-01-05T07:58:43.305Z,85.90
2018-01-05T08:01:11.174Z,85.60
2018-01-05T08:03:38.928Z,86.90
2018-01-05T08:06:06.665Z,86.50
2018-01-05T08:08:34.401Z,84.30
2018-01-05T08:11:02.225Z,82.90
2018-01-05T08:13:30.006Z,81.20
2018-01-05T08:15:57.800Z,80.20
2018-01-05T08:18:25.626Z,80.10
2018-01-05T08:20:54.122Z,80.90
2018-01-05T08:23:21.903Z,80.90
2018-01-05T08:25:49.707Z,81.70
2018-01-05T08:28:17.506Z,83.00
2018-01-05T08:30:45.244Z,84.40
2018-01-05T08:33:13.041Z,84.70
2018-01-05T08:35:40.781Z,83.50
2018-01-05T08:38:08.639Z,82.60
2018-01-05T08:40:36.361Z,82.40
2018-01-05T08:43:04.048Z,82.20
2018-01-05T08:45:31.860Z,81.90
2018-01-05T08:47:59.624Z,81.60
2018-01-05T08:50:27.406Z,80.60
2018-01-05T08:52:55.180Z,80.00
2018-01-05T08:55:23.896Z,78.70
2018-01-05T08:57:51.700Z,76.70
2018-01-05T09:00:19.506Z,74.80
2018-01-05T09:02:47.345Z,73.20
2018-01-05T09:05:15.148Z,72.70
2018-01-05T09:07:42.927Z,71.40
2018-01-05T09:10:10.744Z,69.70
2018-01-05T09:12:38.544Z,68.50
2018-01-05T09:15:06.247Z,65.60
2018-01-05T09:17:34.004Z,64.00
2018-01-05T09:20:01.823Z,62.60
2018-01-05T09:22:29.601Z,61.90
2018-01-05T09:24:57.403Z,59.50
2018-01-05T09:27:25.164Z,60.40
2018-01-05T09:29:52.970Z,60.20
2018-01-05T09:32:20.772Z,60.00
2018-01-05T09:34:48.544Z,59.70
2018-01-05T09:37:16.322Z,59.30
2018-01-05T09:39:44.126Z,59.10
2018-01-05T09:42:11.922Z,58.50
2018-01-05T09:44:39.685Z,60.00
2018-01-05T09:47:07.407Z,60.30
2018-01-05T09:49:35.183Z,61.80
2018-01-05T09:52:02.959Z,63.20
2018-01-05T09:54:30.724Z,62.70
2018-01-05T09:56:58.561Z,61.40
2018-01-05T09:59:26.340Z,62.50
2018-01-05T10:01:54.107Z,63.20
2018-01-05T10:04:21.914Z,63.60
2018-01-05T10:06:49.646Z,64.40
2018-01-05T10:09:17.422Z,65.50
2018-01-05T10:11:45.263Z,65.40
2018-01-05T10:14:13.784Z,66.00
2018-01-05T10:16:41.550Z,65.90
2018-01-05T10:19:09.349Z,66.30
2018-01-05T10:21:37.082Z,66.90
2018-01-05T10:24:04.863Z,67.00
2018-01-05T10:26:32.649Z,69.10
2018-01-05T10:29:00.428Z,67.50
2018-01-05T10:31:28.226Z,68.50
2018-01-05T10:33:56.023Z,69.20
2018-01-05T10:36:23.806Z,69.40
2018-01-05T10:38:51.628Z,68.50
2018-01-05T10:41:19.447Z,67.70
2018-01-05T10:43:47.230Z,67.80
2018-01-05T10:46:14.972Z,67.30
2018-01-05T10:48:43.506Z,63.90
2018-01-05T10:51:12.068Z,62.90
2018-01-05T10:53:39.787Z,62.90
2018-01-05T10:56:07.562Z,63.00
2018-01-05T10:58:35.327Z,63.80
2018-01-05T11:01:03.107Z,62.90
2018-01-05T11:03:30.885Z,63.20
2018-01-05T11:05:58.703Z,62.80
2018-01-05T11:08:26.520Z,60.70
2018-01-05T11:10:54.300Z,61.60
2018-01-05T11:15:53.981Z,61.90
2018-01-05T11:18:21.763Z,62.30
2018-01-05T11:20:49.544Z,62.20
2018-01-05T11:23:17.311Z,61.50
2018-01-05T11:25:45.082Z,61.20
2018-01-05T11:28:12.950Z,61.40
2018-01-05T11:30:40.703Z,61.30
2018-01-05T11:33:08.471Z,61.90
2018-01-05T11:35:36.266Z,62.50
2018-01-05T11:38:03.942Z,62.20
2018-01-05T11:40:31.665Z,62.80
2018-01-05T11:43:00.144Z,60.50
2018-01-05T11:45:27.943Z,60.40
2018-01-05T11:47:55.727Z,59.60
2018-01-05T11:50:23.503Z,59.10
2018-01-05T11:52:51.252Z,59.20
2018-01-05T11:55:18.943Z,59.70
2018-01-05T11:57:46.732Z,60.50
2018-01-05T12:00:14.419Z,59.60
2018-01-05T12:02:42.781Z,61.00
2018-01-05T12:05:10.440Z,61.30
2018-01-05T12:07:38.485Z,60.70
2018-01-05T12:10:06.283Z,59.90
2018-01-05T12:12:33.938Z,59.80
2018-01-05T12:15:01.729Z,60.00
2018-01-05T12:17:29.438Z,60.20
2018-01-05T12:19:57.502Z,61.50
2018-01-05T12:22:34.025Z,61.70
2018-01-05T12:25:02.388Z,62.60
2018-01-05T12:27:30.246Z,62.70
2018-01-05T12:29:58.222Z,63.50
2018-01-05T12:32:25.956Z,64.60
2018-01-05T12:34:53.567Z,64.20
2018-01-05T12:37:21.292Z,63.60
2018-01-05T12:39:48.942Z,62.40
2018-01-05T12:42:16.739Z,63.00
2018-01-05T12:44:44.526Z,62.70
2018-01-05T12:47:12.267Z,61.20
2018-01-05T12:49:40.068Z,62.20
2018-01-05T12:52:07.911Z,60.90
2018-01-05T12:54:35.687Z,60.90
2018-01-05T12:57:04.189Z,61.60
2018-01-05T12:59:31.943Z,61.60
2018-01-05T13:01:59.772Z,61.60
2018-01-05T13:04:27.598Z,61.40
2018-01-05T13:06:55.424Z,61.20
2018-01-05T13:09:24.008Z,58.70
2018-01-05T13:11:51.848Z,58.70
2018-01-05T13:14:20.425Z,62.10
2018-01-05T13:16:48.183Z,62.00
2018-01-05T13:19:15.922Z,62.40
2018-01-05T13:21:43.684Z,62.10
2018-01-05T13:24:11.432Z,61.30
2018-01-05T13:26:39.247Z,61.20
2018-01-05T13:29:07.092Z,63.30
2018-01-05T13:31:34.820Z,65.50
2018-01-05T13:34:02.585Z,65.90
2018-01-05T13:36:30.401Z,66.20
2018-01-05T13:38:58.104Z,66.40
2018-01-05T13:41:25.842Z,67.30
2018-01-05T13:43:53.630Z,68.90
2018-01-05T13:46:21.360Z,65.90
2018-01-05T13:48:49.122Z,66.60
2018-01-05T13:51:16.963Z,66.90
2018-01-05T13:53:44.704Z,67.50
2018-01-05T13:56:12.461Z,68.40
2018-01-05T13:58:40.103Z,66.90
2018-01-05T14:01:07.843Z,67.00
2018-01-05T14:03:35.504Z,66.40
2018-01-05T14:06:03.270Z,65.60
2018-01-05T14:08:30.977Z,65.80
2018-01-05T14:10:58.636Z,66.10
2018-01-05T14:13:26.329Z,66.50
2018-01-05T14:15:54.042Z,67.10
2018-01-05T14:18:21.725Z,67.90
2018-01-05T14:20:50.165Z,69.70
2018-01-05T14:23:17.917Z,69.70
2018-01-05T14:25:51.335Z,69.10
2018-01-05T14:28:19.441Z,68.50
2018-01-05T14:30:47.200Z,68.00
2018-01-05T14:33:14.986Z,68.00
2018-01-05T14:35:42.900Z,67.60
2018-01-05T14:38:10.661Z,67.30
2018-01-05T14:40:38.486Z,67.30
2018-01-05T14:43:06.261Z,67.10
2018-01-05T14:45:34.017Z,67.10
2018-01-05T14:48:01.802Z,67.20
2018-01-05T14:50:29.624Z,67.10
2018-01-05T14:52:57.420Z,67.10
2018-01-05T14:55:25.145Z,67.00
2018-01-05T14:57:52.942Z,66.80
2018-01-05T15:00:20.731Z,66.60
2018-01-05T15:02:48.504Z,67.10
2018-01-05T15:05:16.347Z,66.80
2018-01-05T15:07:44.099Z,66.80
2018-01-05T15:10:11.863Z,66.80
2018-01-05T15:12:39.680Z,66.80
2018-01-05T15:15:07.474Z,67.10
2018-01-05T15:17:35.202Z,67.70
2018-01-05T15:20:03.018Z,67.60
2018-01-05T15:22:30.760Z,67.80
2018-01-05T15:24:58.520Z,67.60
2018-01-05T15:27:26.368Z,67.70
2018-01-05T15:29:54.865Z,67.90
2018-01-05T15:32:22.644Z,67.90
2018-01-05T15:34:50.425Z,68.30
2018-01-05T15:37:18.226Z,68.70
2018-01-05T15:39:46.844Z,69.00
2018-01-05T15:42:14.622Z,68.90
2018-01-05T15:44:42.401Z,68.80
2018-01-05T15:47:10.088Z,68.80
2018-01-05T15:49:38.728Z,69.30
2018-01-05T15:52:06.463Z,69.30
2018-01-05T15:54:34.260Z,69.10
2018-01-05T15:57:02.102Z,69.10
2018-01-05T15:59:29.845Z,67.80
2018-01-05T16:01:57.662Z,62.60
2018-01-05T16:04:25.463Z,61.60
2018-01-05T16:06:53.221Z,66.00
2018-01-05T16:09:20.966Z,70.30
2018-01-05T16:11:48.768Z,64.90
2018-01-05T16:14:16.545Z,69.20
2018-01-05T16:16:44.306Z,68.30
2018-01-05T16:19:12.128Z,67.10
2018-01-05T16:21:39.950Z,72.00
2018-01-05T16:24:07.705Z,69.30
2018-01-05T16:26:35.595Z,66.20
2018-01-05T16:29:03.403Z,65.50
2018-01-05T16:31:31.212Z,71.40
2018-01-05T16:33:59.071Z,70.50
2018-01-05T16:36:26.824Z,65.50
2018-01-05T16:38:54.604Z,67.80
2018-01-05T16:41:22.442Z,70.40
2018-01-05T16:43:50.209Z,70.60
2018-01-05T16:46:18.746Z,72.60
2018-01-05T16:48:46.585Z,72.60
2018-01-05T16:51:14.326Z,66.10
2018-01-05T16:53:42.085Z,66.90
2018-01-05T16:56:09.763Z,69.70
2018-01-05T16:58:37.525Z,73.00
2018-01-05T17:01:06.103Z,76.40
2018-01-05T17:03:33.933Z,76.30
2018-01-05T17:06:01.703Z,76.60
2018-01-05T17:08:29.449Z,73.60
2018-01-05T17:10:57.323Z,73.40
2018-01-05T17:13:25.120Z,74.70
2018-01-05T17:15:52.838Z,74.30
2018-01-05T17:18:20.679Z,74.00
2018-01-05T17:20:48.445Z,67.70
2018-01-05T17:23:16.284Z,68.60
2018-01-05T17:25:44.047Z,70.90
2018-01-05T17:28:11.785Z,74.30
2018-01-05T17:30:39.493Z,73.30
2018-01-05T17:33:07.250Z,73.00
2018-01-05T17:35:35.004Z,72.80
2018-01-05T17:38:02.745Z,73.60
2018-01-05T17:40:32.027Z,73.50
2018-01-05T17:43:00.560Z,78.10
2018-01-05T17:45:29.104Z,78.40
2018-01-05T17:47:57.660Z,79.20
2018-01-05T17:50:25.366Z,79.20
2018-01-05T17:52:53.853Z,77.50
2018-01-05T17:55:21.624Z,77.50
2018-01-05T17:57:50.161Z,76.40
2018-01-05T18:00:27.042Z,76.30
2018-01-05T18:02:54.807Z,75.80
2018-01-05T18:05:22.644Z,75.00
2018-01-05T18:07:51.266Z,74.50
2018-01-05T18:10:19.044Z,74.50
2018-01-05T18:12:46.806Z,74.60
2018-01-05T18:15:14.645Z,74.70
2018-01-05T18:17:42.403Z,74.50
2018-01-05T18:20:10.921Z,75.20
2018-01-05T18:22:38.685Z,75.20
2018-01-05T18:25:06.450Z,75.30
2018-01-05T18:27:34.885Z,75.40
2018-01-05T18:30:03.446Z,76.00
2018-01-05T18:32:32.441Z,75.60
2018-01-05T18:35:01.485Z,75.50
2018-01-05T18:37:29.304Z,75.30
2018-01-05T18:39:57.876Z,75.20
2018-01-05T18:42:27.033Z,75.60
2018-01-05T18:44:55.611Z,75.30
2018-01-05T18:47:25.221Z,75.40
2018-01-05T18:49:53.409Z,75.30
2018-01-05T18:52:21.259Z,75.10
2018-01-05T18:54:49.501Z,74.80
2018-01-05T18:57:17.372Z,74.70
2018-01-05T18:59:45.986Z,74.90
2018-01-05T19:02:14.173Z,74.90
2018-01-05T19:04:43.607Z,75.30
2018-01-05T19:07:15.194Z,75.10
2018-01-05T19:09:46.770Z,74.80
2018-01-05T19:12:16.405Z,74.70
2018-01-05T19:14:47.562Z,75.20
2018-01-05T19:17:18.362Z,74.80
2018-01-05T19:19:46.326Z,75.50
2018-01-05T19:22:14.140Z,74.70
2018-01-05T19:24:41.922Z,74.60
2018-01-05T19:27:09.656Z,74.20
2018-01-05T19:29:37.710Z,74.00
2018-01-05T19:32:06.477Z,74.60
2018-01-05T19:34:34.335Z,74.80
2018-01-05T19:37:02.262Z,74.50
2018-01-05T19:39:30.087Z,73.90
2018-01-05T19:41:57.860Z,73.80
2018-01-05T19:44:25.680Z,74.20
2018-01-05T19:46:53.522Z,74.30
2018-01-05T19:49:22.141Z,74.70
2018-01-05T19:51:49.923Z,75.10
2018-01-05T19:54:18.205Z,74.90
2018-01-05T19:56:46.620Z,74.50
2018-01-05T19:59:15.369Z,73.90
2018-01-05T20:01:44.123Z,74.00
2018-01-05T20:04:13.288Z,74.50
2018-01-05T20:06:50.540Z,74.60
2018-01-05T20:09:20.888Z,74.90
2018-01-05T20:11:51.026Z,74.60
2018-01-05T20:14:19.083Z,74.60
2018-01-05T20:16:47.896Z,74.70
2018-01-05T20:19:15.904Z,75.00
2018-01-05T20:21:44.644Z,74.90
2018-01-05T20:24:21.887Z,74.80
2018-01-05T20:26:49.614Z,75.50
2018-01-05T20:29:17.521Z,75.50
2018-01-05T20:31:45.339Z,75.60
2018-01-05T20:34:18.140Z,75.20
2018-01-05T20:36:54.378Z,75.30
2018-01-05T20:39:27.289Z,75.00
2018-01-05T20:41:56.052Z,76.20
2018-01-05T20:44:23.981Z,76.20
2018-01-05T20:46:52.180Z,76.20
2018-01-05T20:49:20.003Z,76.40
2018-01-05T20:51:53.325Z,75.70
2018-01-05T20:54:21.147Z,75.80
2018-01-05T20:56:49.603Z,76.00
2018-01-05T20:59:18.402Z,77.10
2018-01-05T21:01:49.385Z,78.00
2018-01-05T21:04:23.560Z,77.80
2018-01-05T21:07:02.415Z,77.30
2018-01-05T21:09:32.344Z,77.10
2018-01-05T21:12:03.666Z,77.30
2018-01-05T21:14:32.442Z,77.70
2018-01-05T21:17:00.241Z,77.40
2018-01-05T21:19:28.005Z,77.20
2018-01-05T21:21:55.742Z,77.10
2018-01-05T21:24:23.503Z,77.10
2018-01-05T21:26:51.267Z,78.00
2018-01-05T21:29:19.026Z,77.20
2018-01-05T21:31:46.783Z,77.40
2018-01-05T21:34:14.614Z,77.40
2018-01-05T21:36:42.384Z,77.60
2018-01-05T21:39:10.126Z,77.50
2018-01-05T21:41:37.895Z,77.90
2018-01-05T21:44:05.609Z,78.30
2018-01-05T21:46:33.358Z,78.40
2018-01-05T21:49:01.173Z,78.10
2018-01-05T21:51:29.257Z,77.90
2018-01-05T21:53:57.281Z,78.00
2018-01-05T21:56:26.938Z,79.10
2018-01-05T21:58:54.679Z,79.10
2018-01-05T22:01:22.448Z,79.50
2018-01-05T22:03:50.205Z,78.90
2018-01-05T22:06:18.704Z,78.70
2018-01-05T22:08:46.829Z,78.70
2018-01-05T22:11:15.473Z,78.80
2018-01-05T22:13:44.016Z,78.90
2018-01-05T22:16:11.791Z,80.10
2018-01-05T22:18:39.622Z,80.00
2018-01-05T22:21:07.365Z,80.60
2018-01-05T22:23:35.042Z,81.10
2018-01-05T22:26:02.825Z,81.40
2018-01-05T22:28:30.533Z,81.60
2018-01-05T22:30:58.263Z,81.00
2018-01-05T22:33:26.083Z,80.50
2018-01-05T22:35:53.761Z,80.80
2018-01-05T22:38:21.436Z,80.90
2018-01-05T22:40:49.244Z,80.90
2018-01-05T22:43:16.985Z,80.50
2018-01-05T22:45:45.485Z,80.90
2018-01-05T22:48:13.245Z,80.90
2018-01-05T22:50:40.920Z,81.30
2018-01-05T22:53:08.715Z,81.30
2018-01-05T22:55:36.463Z,81.00
2018-01-05T22:58:04.224Z,81.60
2018-01-05T23:00:32.613Z,81.90
2018-01-05T23:03:01.362Z,82.30
2018-01-05T23:05:29.841Z,82.70
2018-01-05T23:07:57.561Z,82.60
2018-01-05T23:10:25.270Z,83.00
2018-01-05T23:12:53.030Z,82.50
2018-01-05T23:17:52.611Z,82.60
2018-01-05T23:20:20.400Z,83.20
2018-01-05T23:22:48.064Z,84.40
2018-01-05T23:25:15.817Z,84.70
2018-01-05T23:27:43.544Z,84.30
2018-01-05T23:30:11.241Z,84.10
2018-01-05T23:32:39.166Z,83.50
2018-01-05T23:35:06.875Z,82.60
2018-01-05T23:37:34.548Z,82.20
2018-01-05T23:40:02.375Z,82.00
2018-01-05T23:42:30.148Z,82.80
2018-01-05T23:44:57.924Z,83.30
2018-01-05T23:47:25.741Z,83.30
2018-01-05T23:49:53.503Z,83.60
2018-01-05T23:52:21.264Z,83.70
2018-01-05T23:54:49.152Z,83.80
2018-01-05T23:57:16.825Z,83.60
2018-01-05T23:59:44.503Z,83.00
